sensor_id;sensor_type;location;lat;lon;timestamp;pressure;altitude;pressure_sealevel;temperature;humidity
66762;BME280;53672;48.176;16.338;2023-08-06T00:04:37;98087.97;;;15.05;88.94
66762;BME280;53672;48.176;16.338;2023-08-06T00:09:38;98088.50;;;15.02;88.68
66762;BME280;53672;48.176;16.338;2023-08-06T00:14:38;98092.25;;;14.96;88.99
66762;BME280;53672;48.176;16.338;2023-08-06T00:19:40;98090.31;;;14.96;89.30
66762;BME280;53672;48.176;16.338;2023-08-06T00:24:41;98095.75;;;14.91;89.48
66762;BME280;53672;48.176;16.338;2023-08-06T00:29:41;98081.94;;;14.91;89.85
66762;BME280;53672;48.176;16.338;2023-08-06T00:34:43;98084.59;;;14.86;90.06
66762;BME280;53672;48.176;16.338;2023-08-06T00:39:44;98079.69;;;14.60;90.92
66762;BME280;53672;48.176;16.338;2023-08-06T00:44:44;98083.16;;;14.84;90.09
66762;BME280;53672;48.176;16.338;2023-08-06T00:49:46;98082.25;;;14.78;90.31
66762;BME280;53672;48.176;16.338;2023-08-06T00:54:47;98073.38;;;14.76;89.93
66762;BME280;53672;48.176;16.338;2023-08-06T00:59:47;98068.34;;;14.73;90.11
66762;BME280;53672;48.176;16.338;2023-08-06T01:04:49;98064.25;;;14.76;90.00
66762;BME280;53672;48.176;16.338;2023-08-06T01:09:56;98056.59;;;14.66;89.89
66762;BME280;53672;48.176;16.338;2023-08-06T01:15:02;98043.53;;;14.62;90.15
66762;BME280;53672;48.176;16.338;2023-08-06T01:20:08;98029.47;;;14.63;89.92
66762;BME280;53672;48.176;16.338;2023-08-06T01:25:15;98043.22;;;14.58;90.47
66762;BME280;53672;48.176;16.338;2023-08-06T01:30:18;98034.06;;;14.58;90.04
66762;BME280;53672;48.176;16.338;2023-08-06T01:35:21;98024.38;;;14.55;90.21
66762;BME280;53672;48.176;16.338;2023-08-06T01:40:24;98026.72;;;14.63;89.96
66762;BME280;53672;48.176;16.338;2023-08-06T01:45:24;98018.94;;;14.60;89.70
66762;BME280;53672;48.176;16.338;2023-08-06T01:50:25;98014.00;;;14.62;89.95
66762;BME280;53672;48.176;16.338;2023-08-06T01:55:29;98008.38;;;14.57;89.68
66762;BME280;53672;48.176;16.338;2023-08-06T02:00:29;98006.72;;;14.56;89.70
66762;BME280;53672;48.176;16.338;2023-08-06T02:05:30;97999.41;;;14.50;89.49
66762;BME280;53672;48.176;16.338;2023-08-06T02:10:32;97984.53;;;14.51;89.39
66762;BME280;53672;48.176;16.338;2023-08-06T02:15:32;97991.72;;;14.52;89.54
66762;BME280;53672;48.176;16.338;2023-08-06T02:20:33;97996.53;;;14.45;89.62
66762;BME280;53672;48.176;16.338;2023-08-06T02:25:34;97996.78;;;14.43;89.86
66762;BME280;53672;48.176;16.338;2023-08-06T02:30:35;97984.44;;;14.46;89.27
66762;BME280;53672;48.176;16.338;2023-08-06T02:35:35;97982.97;;;14.43;89.13
66762;BME280;53672;48.176;16.338;2023-08-06T02:40:42;97964.97;;;14.41;88.77
66762;BME280;53672;48.176;16.338;2023-08-06T02:45:43;97960.66;;;14.45;88.75
66762;BME280;53672;48.176;16.338;2023-08-06T02:50:43;97966.41;;;14.43;88.61
66762;BME280;53672;48.176;16.338;2023-08-06T02:55:47;97952.38;;;14.45;88.38
66762;BME280;53672;48.176;16.338;2023-08-06T03:00:59;97960.66;;;14.45;87.89
66762;BME280;53672;48.176;16.338;2023-08-06T03:05:59;97964.03;;;14.47;87.74
66762;BME280;53672;48.176;16.338;2023-08-06T03:11:01;97963.78;;;14.48;87.23
66762;BME280;53672;48.176;16.338;2023-08-06T03:16:02;97972.38;;;14.52;86.78
66762;BME280;53672;48.176;16.338;2023-08-06T03:21:02;97971.41;;;14.58;86.17
66762;BME280;53672;48.176;16.338;2023-08-06T03:26:04;97965.88;;;14.58;85.83
66762;BME280;53672;48.176;16.338;2023-08-06T03:31:05;97965.94;;;14.63;86.04
66762;BME280;53672;48.176;16.338;2023-08-06T03:36:05;97961.53;;;14.62;86.39
66762;BME280;53672;48.176;16.338;2023-08-06T03:41:07;97964.72;;;14.71;85.60
66762;BME280;53672;48.176;16.338;2023-08-06T03:46:08;97969.75;;;14.74;85.76
66762;BME280;53672;48.176;16.338;2023-08-06T03:51:08;97961.19;;;14.75;85.47
66762;BME280;53672;48.176;16.338;2023-08-06T03:56:10;97955.44;;;14.77;85.07
66762;BME280;53672;48.176;16.338;2023-08-06T04:01:10;97953.31;;;14.84;85.06
66762;BME280;53672;48.176;16.338;2023-08-06T04:06:11;97952.50;;;14.83;84.81
66762;BME280;53672;48.176;16.338;2023-08-06T04:11:13;97946.44;;;14.86;84.98
66762;BME280;53672;48.176;16.338;2023-08-06T04:16:13;97945.88;;;14.84;84.39
66762;BME280;53672;48.176;16.338;2023-08-06T04:21:14;97948.13;;;14.87;84.19
66762;BME280;53672;48.176;16.338;2023-08-06T04:26:16;97950.16;;;14.75;84.55
66762;BME280;53672;48.176;16.338;2023-08-06T04:31:16;97944.88;;;14.90;83.75
66762;BME280;53672;48.176;16.338;2023-08-06T04:36:17;97950.47;;;14.95;83.94
66762;BME280;53672;48.176;16.338;2023-08-06T04:41:18;97952.16;;;14.96;83.50
66762;BME280;53672;48.176;16.338;2023-08-06T04:46:19;97942.25;;;15.00;82.84
66762;BME280;53672;48.176;16.338;2023-08-06T04:51:19;97926.03;;;15.04;82.50
66762;BME280;53672;48.176;16.338;2023-08-06T04:56:21;97935.75;;;15.06;82.08
66762;BME280;53672;48.176;16.338;2023-08-06T05:01:22;97936.38;;;15.13;82.29
66762;BME280;53672;48.176;16.338;2023-08-06T05:06:22;97922.63;;;15.18;81.84
66762;BME280;53672;48.176;16.338;2023-08-06T05:11:24;97929.78;;;15.14;81.72
66762;BME280;53672;48.176;16.338;2023-08-06T05:16:25;97930.34;;;15.16;81.58
66762;BME280;53672;48.176;16.338;2023-08-06T05:21:25;97926.31;;;15.24;80.65
66762;BME280;53672;48.176;16.338;2023-08-06T05:26:27;97935.38;;;15.19;80.54
66762;BME280;53672;48.176;16.338;2023-08-06T05:31:27;97936.28;;;15.25;80.46
66762;BME280;53672;48.176;16.338;2023-08-06T05:36:28;97932.44;;;15.26;80.11
66762;BME280;53672;48.176;16.338;2023-08-06T05:41:30;97939.69;;;15.32;79.69
66762;BME280;53672;48.176;16.338;2023-08-06T05:46:30;97936.31;;;15.47;79.99
66762;BME280;53672;48.176;16.338;2023-08-06T05:51:31;97935.31;;;15.53;79.33
66762;BME280;53672;48.176;16.338;2023-08-06T05:56:32;97946.88;;;15.50;79.22
66762;BME280;53672;48.176;16.338;2023-08-06T06:01:33;97946.22;;;15.59;78.75
66762;BME280;53672;48.176;16.338;2023-08-06T06:06:33;97946.25;;;15.64;78.27
66762;BME280;53672;48.176;16.338;2023-08-06T06:11:35;97948.78;;;15.66;77.93
66762;BME280;53672;48.176;16.338;2023-08-06T06:16:35;97965.19;;;15.72;78.36
66762;BME280;53672;48.176;16.338;2023-08-06T06:21:36;97964.22;;;15.83;77.57
66762;BME280;53672;48.176;16.338;2023-08-06T06:26:38;97987.31;;;15.94;77.86
66762;BME280;53672;48.176;16.338;2023-08-06T06:31:38;97973.88;;;16.03;77.17
66762;BME280;53672;48.176;16.338;2023-08-06T06:36:39;97971.47;;;16.11;77.67
66762;BME280;53672;48.176;16.338;2023-08-06T06:41:41;97981.72;;;16.11;76.56
66762;BME280;53672;48.176;16.338;2023-08-06T06:46:41;97979.88;;;16.21;76.35
66762;BME280;53672;48.176;16.338;2023-08-06T06:51:41;97965.88;;;16.33;76.98
66762;BME280;53672;48.176;16.338;2023-08-06T06:56:43;97962.88;;;16.34;77.16
66762;BME280;53672;48.176;16.338;2023-08-06T07:01:44;97967.72;;;16.49;76.02
66762;BME280;53672;48.176;16.338;2023-08-06T07:06:44;97974.25;;;16.59;76.48
66762;BME280;53672;48.176;16.338;2023-08-06T07:11:46;97983.66;;;16.58;76.37
66762;BME280;53672;48.176;16.338;2023-08-06T07:16:47;97978.09;;;16.58;75.02
66762;BME280;53672;48.176;16.338;2023-08-06T07:21:47;97974.66;;;16.73;74.90
66762;BME280;53672;48.176;16.338;2023-08-06T07:26:49;97963.97;;;16.87;74.04
66762;BME280;53672;48.176;16.338;2023-08-06T07:31:49;97963.00;;;17.03;73.66
66762;BME280;53672;48.176;16.338;2023-08-06T07:36:50;97978.28;;;17.05;72.56
66762;BME280;53672;48.176;16.338;2023-08-06T07:41:51;97985.84;;;17.15;72.04
66762;BME280;53672;48.176;16.338;2023-08-06T07:46:52;97967.38;;;17.30;71.64
66762;BME280;53672;48.176;16.338;2023-08-06T07:51:52;97954.91;;;17.38;70.97
66762;BME280;53672;48.176;16.338;2023-08-06T07:56:54;97960.56;;;17.48;69.90
66762;BME280;53672;48.176;16.338;2023-08-06T08:01:55;97957.34;;;17.66;69.76
66762;BME280;53672;48.176;16.338;2023-08-06T08:06:55;97949.63;;;17.78;68.21
66762;BME280;53672;48.176;16.338;2023-08-06T08:11:57;97951.53;;;17.73;68.36
66762;BME280;53672;48.176;16.338;2023-08-06T08:16:57;97956.19;;;17.57;68.25
66762;BME280;53672;48.176;16.338;2023-08-06T08:21:58;97929.75;;;17.50;68.60
66762;BME280;53672;48.176;16.338;2023-08-06T08:27:00;97932.81;;;17.48;68.15
66762;BME280;53672;48.176;16.338;2023-08-06T08:32:00;97929.16;;;17.43;68.33
66762;BME280;53672;48.176;16.338;2023-08-06T08:37:01;97928.78;;;17.29;68.78
66762;BME280;53672;48.176;16.338;2023-08-06T08:42:03;97935.47;;;17.33;69.04
66762;BME280;53672;48.176;16.338;2023-08-06T08:47:04;97950.47;;;17.37;68.77
66762;BME280;53672;48.176;16.338;2023-08-06T08:52:05;97938.78;;;17.72;67.86
66762;BME280;53672;48.176;16.338;2023-08-06T08:57:07;97950.22;;;17.85;66.53
66762;BME280;53672;48.176;16.338;2023-08-06T09:02:09;97957.91;;;17.68;67.25
66762;BME280;53672;48.176;16.338;2023-08-06T09:07:13;97953.41;;;17.57;70.99
66762;BME280;53672;48.176;16.338;2023-08-06T09:12:17;97964.59;;;17.30;73.03
66762;BME280;53672;48.176;16.338;2023-08-06T09:17:17;97961.88;;;17.04;72.84
66762;BME280;53672;48.176;16.338;2023-08-06T09:22:18;97987.59;;;16.94;73.85
66762;BME280;53672;48.176;16.338;2023-08-06T09:27:22;97986.03;;;16.77;75.01
66762;BME280;53672;48.176;16.338;2023-08-06T09:32:23;97977.81;;;16.55;75.68
66762;BME280;53672;48.176;16.338;2023-08-06T09:37:25;97979.06;;;16.47;75.55
66762;BME280;53672;48.176;16.338;2023-08-06T09:42:28;97979.44;;;16.51;76.46
66762;BME280;53672;48.176;16.338;2023-08-06T09:47:29;97987.88;;;16.39;76.85
66762;BME280;53672;48.176;16.338;2023-08-06T09:52:29;97992.50;;;16.34;77.83
66762;BME280;53672;48.176;16.338;2023-08-06T09:57:31;97986.75;;;16.40;77.78
66762;BME280;53672;48.176;16.338;2023-08-06T10:02:33;97980.41;;;16.67;76.62
66762;BME280;53672;48.176;16.338;2023-08-06T10:07:34;97982.88;;;16.95;74.93
66762;BME280;53672;48.176;16.338;2023-08-06T10:12:40;97978.88;;;17.12;73.68
66762;BME280;53672;48.176;16.338;2023-08-06T10:17:43;97998.41;;;17.27;73.42
66762;BME280;53672;48.176;16.338;2023-08-06T10:22:45;98002.75;;;17.50;72.41
66762;BME280;53672;48.176;16.338;2023-08-06T10:27:54;98005.03;;;17.58;71.70
66762;BME280;53672;48.176;16.338;2023-08-06T10:32:55;98019.63;;;17.85;71.51
66762;BME280;53672;48.176;16.338;2023-08-06T10:38:00;98023.63;;;18.10;69.73
66762;BME280;53672;48.176;16.338;2023-08-06T10:43:05;98018.66;;;18.17;69.53
66762;BME280;53672;48.176;16.338;2023-08-06T10:48:05;98026.44;;;18.15;69.86
66762;BME280;53672;48.176;16.338;2023-08-06T10:53:06;98027.50;;;18.03;70.55
66762;BME280;53672;48.176;16.338;2023-08-06T10:58:08;98023.69;;;18.20;69.35
66762;BME280;53672;48.176;16.338;2023-08-06T11:03:09;98035.47;;;17.90;69.44
66762;BME280;53672;48.176;16.338;2023-08-06T11:08:09;98031.56;;;17.86;70.21
66762;BME280;53672;48.176;16.338;2023-08-06T11:13:11;98035.03;;;18.13;69.16
66762;BME280;53672;48.176;16.338;2023-08-06T11:18:12;98042.56;;;18.18;67.39
66762;BME280;53672;48.176;16.338;2023-08-06T11:23:13;98042.41;;;17.87;67.73
66762;BME280;53672;48.176;16.338;2023-08-06T11:28:16;98036.53;;;17.42;70.27
66762;BME280;53672;48.176;16.338;2023-08-06T11:33:20;98031.00;;;17.10;72.50
66762;BME280;53672;48.176;16.338;2023-08-06T11:38:20;98031.13;;;16.94;71.85
66762;BME280;53672;48.176;16.338;2023-08-06T11:43:22;98049.31;;;16.85;72.65
66762;BME280;53672;48.176;16.338;2023-08-06T11:48:23;98068.13;;;16.56;74.40
66762;BME280;53672;48.176;16.338;2023-08-06T11:53:27;98067.59;;;16.37;75.60
66762;BME280;53672;48.176;16.338;2023-08-06T11:58:30;98075.97;;;16.21;77.81
66762;BME280;53672;48.176;16.338;2023-08-06T12:03:31;98070.91;;;16.34;77.01
66762;BME280;53672;48.176;16.338;2023-08-06T12:08:31;98073.25;;;16.47;77.41
66762;BME280;53672;48.176;16.338;2023-08-06T12:13:33;98061.66;;;16.50;76.43
66762;BME280;53672;48.176;16.338;2023-08-06T12:18:33;98069.09;;;16.67;76.41
66762;BME280;53672;48.176;16.338;2023-08-06T12:23:34;98067.81;;;16.79;75.35
66762;BME280;53672;48.176;16.338;2023-08-06T12:28:36;98072.28;;;16.80;75.51
66762;BME280;53672;48.176;16.338;2023-08-06T12:33:36;98080.06;;;16.83;75.36
66762;BME280;53672;48.176;16.338;2023-08-06T12:38:37;98078.19;;;16.89;75.21
66762;BME280;53672;48.176;16.338;2023-08-06T12:43:38;98074.47;;;17.05;75.19
66762;BME280;53672;48.176;16.338;2023-08-06T12:48:39;98078.94;;;17.11;75.15
66762;BME280;53672;48.176;16.338;2023-08-06T12:53:39;98082.44;;;17.28;74.32
66762;BME280;53672;48.176;16.338;2023-08-06T12:58:41;98087.56;;;17.41;73.92
66762;BME280;53672;48.176;16.338;2023-08-06T13:03:42;98088.63;;;17.35;73.46
66762;BME280;53672;48.176;16.338;2023-08-06T13:08:43;98087.09;;;17.49;72.97
66762;BME280;53672;48.176;16.338;2023-08-06T13:13:45;98085.94;;;17.77;72.69
66762;BME280;53672;48.176;16.338;2023-08-06T13:18:46;98090.78;;;17.96;71.59
66762;BME280;53672;48.176;16.338;2023-08-06T13:23:47;98090.94;;;18.27;70.88
66762;BME280;53672;48.176;16.338;2023-08-06T13:28:49;98095.75;;;18.36;69.38
66762;BME280;53672;48.176;16.338;2023-08-06T13:33:50;98105.81;;;18.47;69.99
66762;BME280;53672;48.176;16.338;2023-08-06T13:38:50;98098.63;;;18.66;68.54
66762;BME280;53672;48.176;16.338;2023-08-06T13:43:52;98106.22;;;18.86;68.13
66762;BME280;53672;48.176;16.338;2023-08-06T13:48:53;98102.38;;;19.07;67.28
66762;BME280;53672;48.176;16.338;2023-08-06T13:53:54;98099.91;;;19.16;66.98
66762;BME280;53672;48.176;16.338;2023-08-06T13:58:56;98109.13;;;19.21;66.81
66762;BME280;53672;48.176;16.338;2023-08-06T14:03:58;98110.50;;;19.24;63.54
66762;BME280;53672;48.176;16.338;2023-08-06T14:08:58;98114.41;;;19.28;62.00
66762;BME280;53672;48.176;16.338;2023-08-06T14:14:01;98098.28;;;19.35;61.02
66762;BME280;53672;48.176;16.338;2023-08-06T14:19:02;98108.53;;;19.14;57.90
66762;BME280;53672;48.176;16.338;2023-08-06T14:24:04;98104.09;;;19.28;57.17
66762;BME280;53672;48.176;16.338;2023-08-06T14:29:07;98116.91;;;19.29;57.05
66762;BME280;53672;48.176;16.338;2023-08-06T14:34:08;98111.06;;;19.36;58.19
66762;BME280;53672;48.176;16.338;2023-08-06T14:39:09;98131.03;;;19.08;58.18
66762;BME280;53672;48.176;16.338;2023-08-06T14:44:11;98142.03;;;18.73;59.19
66762;BME280;53672;48.176;16.338;2023-08-06T14:49:12;98160.59;;;18.62;60.12
66762;BME280;53672;48.176;16.338;2023-08-06T14:54:13;98141.09;;;18.47;60.58
66762;BME280;53672;48.176;16.338;2023-08-06T14:59:15;98155.31;;;18.60;61.58
66762;BME280;53672;48.176;16.338;2023-08-06T15:04:16;98152.19;;;18.47;61.92
66762;BME280;53672;48.176;16.338;2023-08-06T15:09:19;98162.16;;;18.38;62.41
66762;BME280;53672;48.176;16.338;2023-08-06T15:14:22;98161.22;;;18.22;59.36
66762;BME280;53672;48.176;16.338;2023-08-06T15:19:24;98155.34;;;18.19;59.68
66762;BME280;53672;48.176;16.338;2023-08-06T15:24:25;98160.22;;;18.01;62.62
66762;BME280;53672;48.176;16.338;2023-08-06T15:29:29;98159.09;;;17.97;60.30
66762;BME280;53672;48.176;16.338;2023-08-06T15:34:30;98145.84;;;18.10;59.41
66762;BME280;53672;48.176;16.338;2023-08-06T15:39:31;98154.84;;;18.27;59.35
66762;BME280;53672;48.176;16.338;2023-08-06T15:44:33;98143.00;;;18.41;58.50
66762;BME280;53672;48.176;16.338;2023-08-06T15:49:34;98153.66;;;18.54;57.98
66762;BME280;53672;48.176;16.338;2023-08-06T15:54:35;98155.63;;;18.64;58.05
66762;BME280;53672;48.176;16.338;2023-08-06T15:59:37;98161.19;;;18.64;58.09
66762;BME280;53672;48.176;16.338;2023-08-06T16:04:38;98164.78;;;18.64;58.69
66762;BME280;53672;48.176;16.338;2023-08-06T16:09:40;98158.91;;;18.56;58.91
66762;BME280;53672;48.176;16.338;2023-08-06T16:14:42;98163.25;;;18.37;59.51
66762;BME280;53672;48.176;16.338;2023-08-06T16:19:43;98179.78;;;18.17;60.30
66762;BME280;53672;48.176;16.338;2023-08-06T16:24:44;98174.44;;;18.10;60.09
66762;BME280;53672;48.176;16.338;2023-08-06T16:29:46;98195.16;;;17.92;61.20
66762;BME280;53672;48.176;16.338;2023-08-06T16:34:47;98175.50;;;17.67;61.18
66762;BME280;53672;48.176;16.338;2023-08-06T16:39:49;98199.47;;;17.47;62.47
66762;BME280;53672;48.176;16.338;2023-08-06T16:44:51;98207.41;;;17.43;63.42
66762;BME280;53672;48.176;16.338;2023-08-06T16:49:52;98211.34;;;17.20;64.06
66762;BME280;53672;48.176;16.338;2023-08-06T16:54:53;98226.00;;;17.16;64.89
66762;BME280;53672;48.176;16.338;2023-08-06T16:59:56;98221.28;;;16.95;65.77
66762;BME280;53672;48.176;16.338;2023-08-06T17:04:57;98231.81;;;16.93;65.25
66762;BME280;53672;48.176;16.338;2023-08-06T17:09:58;98236.66;;;16.81;65.17
66762;BME280;53672;48.176;16.338;2023-08-06T17:15:01;98249.66;;;16.80;66.60
66762;BME280;53672;48.176;16.338;2023-08-06T17:20:02;98250.09;;;16.72;65.96
66762;BME280;53672;48.176;16.338;2023-08-06T17:25:04;98266.66;;;16.67;65.43
66762;BME280;53672;48.176;16.338;2023-08-06T17:30:08;98256.28;;;16.57;64.19
66762;BME280;53672;48.176;16.338;2023-08-06T17:35:09;98271.72;;;16.53;64.85
66762;BME280;53672;48.176;16.338;2023-08-06T17:40:11;98268.88;;;16.48;64.89
66762;BME280;53672;48.176;16.338;2023-08-06T17:45:15;98292.03;;;16.42;65.55
66762;BME280;53672;48.176;16.338;2023-08-06T17:50:16;98283.47;;;16.27;65.77
66762;BME280;53672;48.176;16.338;2023-08-06T17:55:17;98287.09;;;16.28;66.02
66762;BME280;53672;48.176;16.338;2023-08-06T18:00:21;98278.69;;;16.23;65.58
66762;BME280;53672;48.176;16.338;2023-08-06T18:05:21;98302.09;;;16.15;65.08
66762;BME280;53672;48.176;16.338;2023-08-06T18:10:22;98299.34;;;16.15;63.69
66762;BME280;53672;48.176;16.338;2023-08-06T18:15:25;98286.06;;;16.17;63.96
66762;BME280;53672;48.176;16.338;2023-08-06T18:20:27;98308.66;;;16.09;64.57
66762;BME280;53672;48.176;16.338;2023-08-06T18:25:28;98298.75;;;15.97;64.64
66762;BME280;53672;48.176;16.338;2023-08-06T18:30:30;98296.88;;;15.85;64.85
66762;BME280;53672;48.176;16.338;2023-08-06T18:35:31;98316.00;;;15.87;65.14
66762;BME280;53672;48.176;16.338;2023-08-06T18:40:31;98313.16;;;15.82;65.85
66762;BME280;53672;48.176;16.338;2023-08-06T18:45:34;98333.03;;;15.79;64.94
66762;BME280;53672;48.176;16.338;2023-08-06T18:50:34;98353.41;;;15.73;64.94
66762;BME280;53672;48.176;16.338;2023-08-06T18:55:36;98334.94;;;15.78;63.71
66762;BME280;53672;48.176;16.338;2023-08-06T19:00:40;98354.06;;;15.80;63.13
66762;BME280;53672;48.176;16.338;2023-08-06T19:05:41;98357.13;;;15.67;63.07
66762;BME280;53672;48.176;16.338;2023-08-06T19:10:41;98352.22;;;15.57;62.91
66762;BME280;53672;48.176;16.338;2023-08-06T19:15:47;98356.31;;;15.55;62.58
66762;BME280;53672;48.176;16.338;2023-08-06T19:20:48;98375.09;;;15.41;63.36
66762;BME280;53672;48.176;16.338;2023-08-06T19:25:48;98376.22;;;15.29;62.26
66762;BME280;53672;48.176;16.338;2023-08-06T19:30:51;98385.13;;;15.19;63.24
66762;BME280;53672;48.176;16.338;2023-08-06T19:35:52;98395.16;;;15.08;63.61
66762;BME280;53672;48.176;16.338;2023-08-06T19:41:03;98394.53;;;15.06;64.25
66762;BME280;53672;48.176;16.338;2023-08-06T19:46:06;98396.34;;;15.12;63.55
66762;BME280;53672;48.176;16.338;2023-08-06T19:51:07;98374.56;;;15.04;64.30
66762;BME280;53672;48.176;16.338;2023-08-06T19:56:08;98372.19;;;14.96;64.51
66762;BME280;53672;48.176;16.338;2023-08-06T20:01:10;98385.75;;;14.98;65.25
66762;BME280;53672;48.176;16.338;2023-08-06T20:06:12;98368.84;;;14.94;65.25
66762;BME280;53672;48.176;16.338;2023-08-06T20:11:13;98370.50;;;14.95;65.91
66762;BME280;53672;48.176;16.338;2023-08-06T20:16:15;98365.97;;;14.89;66.41
66762;BME280;53672;48.176;16.338;2023-08-06T20:21:16;98367.75;;;14.84;67.24
66762;BME280;53672;48.176;16.338;2023-08-06T20:26:17;98370.03;;;14.75;67.16
66762;BME280;53672;48.176;16.338;2023-08-06T20:31:19;98371.75;;;14.76;67.79
66762;BME280;53672;48.176;16.338;2023-08-06T20:36:20;98375.94;;;14.67;68.32
66762;BME280;53672;48.176;16.338;2023-08-06T20:41:21;98364.75;;;14.62;68.70
66762;BME280;53672;48.176;16.338;2023-08-06T20:46:23;98377.13;;;14.48;69.06
66762;BME280;53672;48.176;16.338;2023-08-06T20:51:24;98378.81;;;14.49;69.25
66762;BME280;53672;48.176;16.338;2023-08-06T20:56:25;98382.72;;;14.41;68.80
66762;BME280;53672;48.176;16.338;2023-08-06T21:01:27;98393.53;;;14.43;68.79
66762;BME280;53672;48.176;16.338;2023-08-06T21:06:27;98390.63;;;14.38;69.14
66762;BME280;53672;48.176;16.338;2023-08-06T21:11:28;98401.78;;;14.31;68.63
66762;BME280;53672;48.176;16.338;2023-08-06T21:16:30;98405.41;;;14.32;68.16
66762;BME280;53672;48.176;16.338;2023-08-06T21:21:30;98403.63;;;14.37;68.92
66762;BME280;53672;48.176;16.338;2023-08-06T21:26:31;98411.28;;;14.24;67.77
66762;BME280;53672;48.176;16.338;2023-08-06T21:31:32;98426.41;;;14.33;67.35
66762;BME280;53672;48.176;16.338;2023-08-06T21:36:33;98417.41;;;14.26;67.60
66762;BME280;53672;48.176;16.338;2023-08-06T21:41:33;98429.78;;;14.35;66.62
66762;BME280;53672;48.176;16.338;2023-08-06T21:46:35;98436.97;;;14.36;66.43
66762;BME280;53672;48.176;16.338;2023-08-06T21:51:36;98421.63;;;14.40;66.54
66762;BME280;53672;48.176;16.338;2023-08-06T21:56:36;98432.69;;;14.40;66.41
66762;BME280;53672;48.176;16.338;2023-08-06T22:01:38;98439.25;;;14.39;66.37
66762;BME280;53672;48.176;16.338;2023-08-06T22:06:39;98446.63;;;14.45;66.26
66762;BME280;53672;48.176;16.338;2023-08-06T22:11:40;98435.16;;;14.30;66.79
66762;BME280;53672;48.176;16.338;2023-08-06T22:16:41;98439.84;;;14.29;66.48
66762;BME280;53672;48.176;16.338;2023-08-06T22:21:42;98452.56;;;14.30;66.72
66762;BME280;53672;48.176;16.338;2023-08-06T22:26:42;98449.28;;;14.22;66.75
66762;BME280;53672;48.176;16.338;2023-08-06T22:31:44;98442.56;;;14.18;66.83
66762;BME280;53672;48.176;16.338;2023-08-06T22:36:45;98422.03;;;14.14;66.78
66762;BME280;53672;48.176;16.338;2023-08-06T22:41:45;98430.19;;;14.09;66.40
66762;BME280;53672;48.176;16.338;2023-08-06T22:46:47;98422.50;;;14.11;66.31
66762;BME280;53672;48.176;16.338;2023-08-06T22:51:48;98415.63;;;14.02;66.11
66762;BME280;53672;48.176;16.338;2023-08-06T22:56:48;98419.63;;;14.06;65.62
66762;BME280;53672;48.176;16.338;2023-08-06T23:01:50;98421.53;;;14.05;65.81
66762;BME280;53672;48.176;16.338;2023-08-06T23:06:50;98416.88;;;14.06;65.62
66762;BME280;53672;48.176;16.338;2023-08-06T23:11:51;98402.44;;;14.45;64.22
66762;BME280;53672;48.176;16.338;2023-08-06T23:16:53;98411.97;;;14.19;64.56
66762;BME280;53672;48.176;16.338;2023-08-06T23:21:54;98399.81;;;14.09;64.56
66762;BME280;53672;48.176;16.338;2023-08-06T23:26:54;98394.91;;;14.11;64.98
66762;BME280;53672;48.176;16.338;2023-08-06T23:31:56;98402.72;;;14.14;64.43
66762;BME280;53672;48.176;16.338;2023-08-06T23:36:57;98419.00;;;14.04;64.89
66762;BME280;53672;48.176;16.338;2023-08-06T23:41:57;98434.34;;;14.00;64.30
66762;BME280;53672;48.176;16.338;2023-08-06T23:46:59;98426.81;;;14.07;64.39
66762;BME280;53672;48.176;16.338;2023-08-06T23:51:59;98428.97;;;14.05;63.46
66762;BME280;53672;48.176;16.338;2023-08-06T23:57:00;98425.03;;;14.12;63.27
